Terminal Aerodrome Forecast
Issued by NWS Wilmington, OH

Home | Current Version | Previous Version | Text Only | Print | Product List | Glossary On
Versions: 1 2 3 4 5 6 7 8 9 10 11 12 13 14 15 16 17 18 19
004
FTUS41 KILN 271133 AAB
TAFILN
TAF AMD
KILN 271133Z 2712/2806 18006KT P6SM VCSH OVC035
     FM271400 17007KT P6SM -SHRA OVC025
     FM271700 18009KT P6SM VCSH OVC025
     FM272200 19009KT P6SM OVC025
     FM272300 15005KT P6SM OVC035=

USA.gov is the U.S. government's official web portal to all federal, state and local government web resources and services.